Rousse, Bulgaria
Current Conditions -  °F | °C
As of 4:30 PM on Thursday 30 Oct 2014 (Local Time) from LRBS Reporting Station
Broken Clouds Broken Clouds  
Wind Chill: 48°   Ceiling: 1300
Heat Index: 48°   Visibility: 4mi
Dew Point: 45°   Wind: 1mph
Humidity: 87%   Direction: NA
Pressure: 30.18"   Gusts: NA
Location:  43.83°N, 25.98°E
Report Text: LRBS 301330Z VRB01KT 7000 BKN013 09/07 Q1022 R07/29//95 NOSIG
Loading
Personal Weather Stations






























Interactive Weather Map
Tropical Storm Tracking
New forecast layout! Learn more

10-Day Weather Forecast

Advertisements
Track Severe Weather on mobile